createdAt,value
2017-08-10T00:01:48.685Z,4.37
2017-08-10T00:04:14.843Z,4.80
2017-08-10T00:06:41.036Z,3.13
2017-08-10T00:09:07.291Z,3.80
2017-08-10T00:11:34.228Z,3.40
2017-08-10T00:14:00.476Z,3.70
2017-08-10T00:16:26.683Z,3.70
2017-08-10T00:19:07.747Z,3.73
2017-08-10T00:21:33.939Z,3.40
2017-08-10T00:24:00.150Z,3.10
2017-08-10T00:26:27.856Z,2.97
2017-08-10T00:28:53.982Z,3.30
2017-08-10T00:31:22.230Z,3.80
2017-08-10T00:33:49.216Z,4.13
2017-08-10T00:36:15.400Z,3.43
2017-08-10T00:38:43.042Z,4.63
2017-08-10T00:41:09.990Z,4.03
2017-08-10T00:43:36.265Z,4.40
2017-08-10T00:46:02.442Z,4.37
2017-08-10T00:48:28.606Z,3.37
2017-08-10T00:50:56.002Z,3.53
2017-08-10T00:53:22.182Z,3.43
2017-08-10T00:55:49.140Z,3.67
2017-08-10T00:58:16.511Z,3.87
2017-08-10T01:00:42.661Z,3.00
2017-08-10T01:03:09.261Z,2.90
2017-08-10T01:05:35.417Z,2.80
2017-08-10T01:08:01.617Z,3.90
2017-08-10T01:10:27.859Z,2.60
2017-08-10T01:12:54.050Z,3.10
2017-08-10T01:15:21.041Z,4.00
2017-08-10T01:17:47.305Z,3.10
2017-08-10T01:20:13.454Z,4.10
2017-08-10T01:22:40.370Z,3.33
2017-08-10T01:25:06.552Z,3.10
2017-08-10T01:27:33.074Z,3.50
2017-08-10T01:29:59.246Z,4.20
2017-08-10T01:32:25.460Z,4.20
2017-08-10T01:34:51.642Z,5.50
2017-08-10T01:37:17.830Z,3.87
2017-08-10T01:39:44.009Z,3.33
2017-08-10T01:42:10.958Z,3.20
2017-08-10T01:44:37.878Z,3.50
2017-08-10T01:47:04.078Z,2.67
2017-08-10T01:49:30.278Z,3.20
2017-08-10T01:51:56.454Z,2.80
2017-08-10T01:54:22.636Z,3.07
2017-08-10T01:56:48.807Z,3.80
2017-08-10T01:59:14.968Z,3.73
2017-08-10T02:01:41.923Z,3.60
2017-08-10T02:04:08.866Z,3.50
2017-08-10T02:06:35.045Z,3.60
2017-08-10T02:09:01.251Z,3.40
2017-08-10T02:11:27.406Z,3.60
2017-08-10T02:13:54.312Z,3.30
2017-08-10T02:16:20.458Z,3.10
2017-08-10T02:18:46.996Z,3.80
2017-08-10T02:21:13.103Z,3.77
2017-08-10T02:23:39.570Z,3.80
2017-08-10T02:26:05.698Z,3.23
2017-08-10T02:28:31.816Z,3.50
2017-08-10T02:30:57.927Z,4.30
2017-08-10T02:33:24.053Z,3.73
2017-08-10T02:35:50.119Z,3.30
2017-08-10T02:38:16.264Z,2.97
2017-08-10T02:40:43.208Z,3.10
2017-08-10T02:43:09.335Z,3.80
2017-08-10T02:45:35.442Z,4.20
2017-08-10T02:48:01.932Z,3.90
2017-08-10T02:50:28.038Z,4.57
2017-08-10T02:52:54.114Z,3.50
2017-08-10T02:55:20.253Z,3.47
2017-08-10T02:57:46.431Z,3.63
2017-08-10T03:00:12.620Z,5.40
2017-08-10T03:02:38.743Z,4.70
2017-08-10T03:05:04.953Z,4.57
2017-08-10T03:07:31.097Z,4.03
2017-08-10T03:10:03.277Z,4.00
2017-08-10T03:12:29.403Z,4.90
2017-08-10T03:14:55.935Z,3.70
2017-08-10T03:17:22.675Z,5.13
2017-08-10T03:19:49.577Z,4.60
2017-08-10T03:22:16.462Z,3.70
2017-08-10T03:24:42.672Z,3.90
2017-08-10T03:27:08.803Z,4.30
2017-08-10T03:29:34.938Z,6.17
2017-08-10T03:32:01.111Z,6.97
2017-08-10T03:34:27.269Z,7.23
2017-08-10T03:36:53.427Z,7.20
2017-08-10T03:39:19.590Z,5.60
2017-08-10T03:41:45.749Z,5.90
2017-08-10T03:44:11.877Z,4.00
2017-08-10T03:46:38.036Z,8.40
2017-08-10T03:49:04.181Z,4.67
2017-08-10T03:51:31.092Z,5.10
2017-08-10T03:53:57.227Z,7.10
2017-08-10T03:56:23.378Z,6.70
2017-08-10T03:58:49.558Z,5.83
2017-08-10T04:01:15.706Z,6.20
2017-08-10T04:03:41.874Z,5.13
2017-08-10T04:06:08.790Z,5.27
2017-08-10T04:08:34.973Z,5.40
2017-08-10T04:11:01.146Z,5.90
2017-08-10T04:13:28.090Z,5.00
2017-08-10T04:15:54.275Z,5.33
2017-08-10T04:18:20.460Z,4.70
2017-08-10T04:20:47.343Z,5.37
2017-08-10T04:23:14.270Z,4.13
2017-08-10T04:25:41.193Z,4.23
2017-08-10T04:28:07.442Z,3.90
2017-08-10T04:30:34.418Z,3.10
2017-08-10T04:33:00.594Z,3.67
2017-08-10T04:35:26.803Z,2.73
2017-08-10T04:37:52.974Z,2.90
2017-08-10T04:40:19.162Z,3.50
2017-08-10T04:42:45.335Z,3.03
2017-08-10T04:45:11.494Z,2.93
2017-08-10T04:47:37.662Z,2.80
2017-08-10T04:50:04.120Z,3.00
2017-08-10T04:52:30.314Z,3.17
2017-08-10T04:54:56.488Z,2.97
2017-08-10T04:57:22.619Z,4.20
2017-08-10T04:59:48.833Z,3.17
2017-08-10T05:02:15.732Z,3.93
2017-08-10T05:04:41.883Z,3.10
2017-08-10T05:07:08.794Z,3.23
2017-08-10T05:09:35.688Z,3.03
2017-08-10T05:12:02.558Z,2.83
2017-08-10T05:14:28.714Z,3.23
2017-08-10T05:16:54.857Z,3.23
2017-08-10T05:19:20.997Z,2.97
2017-08-10T05:21:47.858Z,3.00
2017-08-10T05:24:16.175Z,2.50
2017-08-10T05:26:42.302Z,2.90
2017-08-10T05:29:08.393Z,3.80
2017-08-10T05:31:35.272Z,3.30
2017-08-10T05:34:01.748Z,3.77
2017-08-10T05:36:27.877Z,3.47
2017-08-10T05:38:54.020Z,4.57
2017-08-10T05:41:20.866Z,4.10
2017-08-10T05:43:47.763Z,3.73
2017-08-10T05:46:13.902Z,4.70
2017-08-10T05:48:40.016Z,4.13
2017-08-10T05:51:06.142Z,4.10
2017-08-10T05:53:32.246Z,4.43
2017-08-10T05:55:58.370Z,3.80
2017-08-10T05:58:24.466Z,4.47
2017-08-10T06:00:51.297Z,5.20
2017-08-10T06:03:17.462Z,4.53
2017-08-10T06:05:43.567Z,4.40
2017-08-10T06:08:10.421Z,5.00
2017-08-10T06:10:36.513Z,4.87
2017-08-10T06:13:02.631Z,5.30
2017-08-10T06:15:28.769Z,4.20
2017-08-10T06:17:54.858Z,3.83
2017-08-10T06:20:20.999Z,3.97
2017-08-10T06:22:47.103Z,4.70
2017-08-10T06:25:13.203Z,4.73
2017-08-10T06:27:39.330Z,3.27
2017-08-10T06:30:05.454Z,3.70
2017-08-10T06:32:31.586Z,3.57
2017-08-10T06:34:57.760Z,3.17
2017-08-10T06:37:23.882Z,3.10
2017-08-10T06:39:50.010Z,2.80
2017-08-10T06:42:16.153Z,2.50
2017-08-10T06:44:42.454Z,3.70
2017-08-10T06:47:08.650Z,2.90
2017-08-10T06:49:34.783Z,4.20
2017-08-10T06:52:00.958Z,4.03
2017-08-10T06:54:27.064Z,3.40
2017-08-10T06:56:53.164Z,3.00
2017-08-10T06:59:19.319Z,3.07
2017-08-10T07:01:45.441Z,2.60
2017-08-10T07:04:11.512Z,2.80
2017-08-10T07:06:39.434Z,2.87
2017-08-10T07:09:05.613Z,2.57
2017-08-10T07:11:32.476Z,2.50
2017-08-10T07:13:58.582Z,2.63
2017-08-10T07:16:25.414Z,2.30
2017-08-10T07:18:51.573Z,2.70
2017-08-10T07:21:17.678Z,2.70
2017-08-10T07:23:44.543Z,2.20
2017-08-10T07:26:10.646Z,3.07
2017-08-10T07:28:37.537Z,2.50
2017-08-10T07:31:03.656Z,2.30
2017-08-10T07:33:30.943Z,2.50
2017-08-10T07:35:57.058Z,3.67
2017-08-10T07:38:23.165Z,4.40
2017-08-10T07:40:49.313Z,4.07
2017-08-10T07:43:15.430Z,3.73
2017-08-10T07:45:41.961Z,3.50
2017-08-10T07:48:08.793Z,3.37
2017-08-10T07:50:35.666Z,3.90
2017-08-10T07:53:02.160Z,3.03
2017-08-10T07:55:28.296Z,2.60
2017-08-10T07:57:54.848Z,2.30
2017-08-10T08:00:20.967Z,3.37
2017-08-10T08:02:47.088Z,2.40
2017-08-10T08:05:13.231Z,2.40
2017-08-10T08:07:39.330Z,2.40
2017-08-10T08:10:05.467Z,2.50
2017-08-10T08:12:31.624Z,3.07
2017-08-10T08:14:57.776Z,3.60
2017-08-10T08:17:23.958Z,2.63
2017-08-10T08:19:50.446Z,2.33
2017-08-10T08:22:16.635Z,3.27
2017-08-10T08:24:44.481Z,2.60
2017-08-10T08:27:11.103Z,2.70
2017-08-10T08:29:37.222Z,2.50
2017-08-10T08:32:04.422Z,3.13
2017-08-10T08:34:30.562Z,2.60
2017-08-10T08:36:56.738Z,2.60
2017-08-10T08:39:22.907Z,3.00
2017-08-10T08:41:49.043Z,3.47
2017-08-10T08:44:15.922Z,3.07
2017-08-10T08:46:42.434Z,2.90
2017-08-10T08:49:09.418Z,2.73
2017-08-10T08:51:36.598Z,3.43
2017-08-10T08:54:02.885Z,2.93
2017-08-10T08:56:29.042Z,3.03
2017-08-10T08:58:55.145Z,3.50
2017-08-10T09:01:22.026Z,2.57
2017-08-10T09:03:48.182Z,2.77
2017-08-10T09:06:14.299Z,2.40
2017-08-10T09:08:40.761Z,3.23
2017-08-10T09:11:06.942Z,3.13
2017-08-10T09:13:33.079Z,2.60
2017-08-10T09:15:59.247Z,3.70
2017-08-10T09:18:26.138Z,2.47
2017-08-10T09:20:52.307Z,2.50
2017-08-10T09:23:18.429Z,2.40
2017-08-10T09:25:44.623Z,2.70
2017-08-10T09:28:10.790Z,2.43
2017-08-10T09:30:36.922Z,2.00
2017-08-10T09:33:03.096Z,2.50
2017-08-10T09:35:29.237Z,2.80
2017-08-10T09:37:55.410Z,2.50
2017-08-10T09:40:21.540Z,2.40
2017-08-10T09:42:48.443Z,2.20
2017-08-10T09:45:14.609Z,2.60
2017-08-10T09:47:40.786Z,2.40
2017-08-10T09:50:06.961Z,3.00
2017-08-10T09:52:33.095Z,2.80
2017-08-10T09:54:59.963Z,2.03
2017-08-10T09:57:26.107Z,2.33
2017-08-10T09:59:52.250Z,2.60
2017-08-10T10:02:18.489Z,3.07
2017-08-10T10:04:44.623Z,2.23
2017-08-10T10:07:10.783Z,2.00
2017-08-10T10:09:37.652Z,2.70
2017-08-10T10:12:03.850Z,3.00
2017-08-10T10:14:30.683Z,2.50
2017-08-10T10:16:56.803Z,3.10
2017-08-10T10:19:22.956Z,2.80
2017-08-10T10:21:49.805Z,3.20
2017-08-10T10:24:16.715Z,2.57
2017-08-10T10:26:42.791Z,2.33
2017-08-10T10:29:08.894Z,2.83
2017-08-10T10:31:35.785Z,2.90
2017-08-10T10:34:01.912Z,3.10
2017-08-10T10:36:29.165Z,2.97
2017-08-10T10:38:55.696Z,3.10
2017-08-10T10:41:21.984Z,2.80
2017-08-10T10:43:48.833Z,2.73
2017-08-10T10:46:15.714Z,3.00
2017-08-10T10:48:42.234Z,2.50
2017-08-10T10:51:08.351Z,3.27
2017-08-10T10:53:34.451Z,3.23
2017-08-10T10:56:00.546Z,2.40
2017-08-10T10:58:26.683Z,3.13
2017-08-10T11:00:53.562Z,3.00
2017-08-10T11:03:20.403Z,2.60
2017-08-10T11:05:47.243Z,2.90
2017-08-10T11:08:14.102Z,2.80
2017-08-10T11:10:40.253Z,2.20
2017-08-10T11:13:06.392Z,2.50
2017-08-10T11:15:32.522Z,2.13
2017-08-10T11:17:58.591Z,3.47
2017-08-10T11:20:25.499Z,5.80
2017-08-10T11:22:51.602Z,2.30
2017-08-10T11:25:17.700Z,2.73
2017-08-10T11:27:44.554Z,2.33
2017-08-10T11:30:10.646Z,2.33
2017-08-10T11:32:36.782Z,2.40
2017-08-10T11:35:03.651Z,2.03
2017-08-10T11:37:29.732Z,2.40
2017-08-10T11:39:56.607Z,2.90
2017-08-10T11:42:22.743Z,3.20
2017-08-10T11:44:49.249Z,3.40
2017-08-10T11:47:15.359Z,2.63
2017-08-10T11:49:41.640Z,2.60
2017-08-10T11:52:07.794Z,2.17
2017-08-10T11:54:33.879Z,3.17
2017-08-10T11:57:00.779Z,2.77
2017-08-10T11:59:26.953Z,2.80
2017-08-10T12:01:54.792Z,2.87
2017-08-10T12:04:20.950Z,3.10
2017-08-10T12:06:47.807Z,2.33
2017-08-10T12:09:13.941Z,2.27
2017-08-10T12:11:40.110Z,2.40
2017-08-10T12:14:06.322Z,2.43
2017-08-10T12:16:32.486Z,2.63
2017-08-10T12:18:58.607Z,2.00
2017-08-10T12:21:24.757Z,2.30
2017-08-10T12:23:50.948Z,1.70
2017-08-10T12:26:17.088Z,2.17
2017-08-10T12:28:43.234Z,1.67
2017-08-10T12:31:10.133Z,1.40
2017-08-10T12:33:36.290Z,1.57
2017-08-10T12:36:02.488Z,1.70
2017-08-10T12:38:29.305Z,1.23
2017-08-10T12:40:55.475Z,1.50
2017-08-10T12:43:21.594Z,2.00
2017-08-10T12:45:47.831Z,1.70
2017-08-10T12:48:13.984Z,1.70
2017-08-10T12:50:40.131Z,1.80
2017-08-10T12:53:07.152Z,2.10
2017-08-10T12:55:33.273Z,1.63
2017-08-10T12:58:00.258Z,1.80
2017-08-10T13:00:26.417Z,1.90
2017-08-10T13:02:52.635Z,1.70
2017-08-10T13:05:18.798Z,1.60
2017-08-10T13:07:44.974Z,2.30
2017-08-10T13:10:11.178Z,1.57
2017-08-10T13:12:38.074Z,2.13
2017-08-10T13:15:04.283Z,2.37
2017-08-10T13:17:30.433Z,2.70
2017-08-10T13:19:56.614Z,1.67
2017-08-10T13:22:22.831Z,1.70
2017-08-10T13:24:49.775Z,1.60
2017-08-10T13:27:16.727Z,2.20
2017-08-10T13:29:43.627Z,1.50
2017-08-10T13:32:09.843Z,2.23
2017-08-10T13:34:36.001Z,1.93
2017-08-10T13:37:02.163Z,1.23
2017-08-10T13:39:29.083Z,1.87
2017-08-10T13:41:56.047Z,2.30
2017-08-10T13:44:22.954Z,1.40
2017-08-10T13:46:49.118Z,1.70
2017-08-10T13:49:16.081Z,1.83
2017-08-10T13:51:42.271Z,1.23
2017-08-10T13:54:09.331Z,1.93
2017-08-10T13:56:36.237Z,1.67
2017-08-10T13:59:02.422Z,1.70
2017-08-10T14:01:28.608Z,2.00
2017-08-10T14:03:54.835Z,1.60
2017-08-10T14:06:21.003Z,1.70
2017-08-10T14:08:47.902Z,1.90
2017-08-10T14:11:14.143Z,1.70
2017-08-10T14:13:40.365Z,1.93
2017-08-10T14:16:06.530Z,1.90
2017-08-10T14:18:33.462Z,2.40
2017-08-10T14:20:59.638Z,2.10
2017-08-10T14:23:25.829Z,2.20
2017-08-10T14:35:42.034Z,2.17
2017-08-10T14:38:08.198Z,2.23
2017-08-10T14:40:34.430Z,2.13
2017-08-10T14:43:01.043Z,3.13
2017-08-10T14:45:27.261Z,3.00
2017-08-10T14:47:54.870Z,2.60
2017-08-10T14:50:23.870Z,3.10
2017-08-10T14:52:50.103Z,3.30
2017-08-10T14:55:17.192Z,3.00
2017-08-10T14:57:45.681Z,3.47
2017-08-10T15:00:12.369Z,3.70
2017-08-10T15:02:39.715Z,3.50
2017-08-10T15:05:07.095Z,3.57
2017-08-10T15:07:34.060Z,3.80
2017-08-10T15:10:00.697Z,4.03
2017-08-10T15:12:26.924Z,3.70
2017-08-10T15:14:54.599Z,3.33
2017-08-10T15:17:20.780Z,3.57
2017-08-10T15:19:47.718Z,4.07
2017-08-10T15:22:13.885Z,4.07
2017-08-10T15:24:40.067Z,3.97
2017-08-10T15:27:06.223Z,3.90
2017-08-10T15:29:34.223Z,4.03
2017-08-10T15:32:00.537Z,4.00
2017-08-10T15:34:26.790Z,3.80
2017-08-10T15:36:53.004Z,3.33
2017-08-10T15:39:19.228Z,3.33
2017-08-10T15:41:45.403Z,3.73
2017-08-10T15:44:11.610Z,3.23
2017-08-10T15:46:37.793Z,3.23
2017-08-10T15:49:04.785Z,2.93
2017-08-10T15:51:30.961Z,3.70
2017-08-10T15:53:57.891Z,2.80
2017-08-10T15:56:24.073Z,2.90
2017-08-10T15:58:50.274Z,3.43
2017-08-10T16:01:17.180Z,3.40
2017-08-10T16:03:43.351Z,3.13
2017-08-10T16:06:10.603Z,3.30
2017-08-10T16:08:36.797Z,4.70
2017-08-10T16:11:03.013Z,4.50
2017-08-10T16:13:29.226Z,3.30
2017-08-10T16:15:55.460Z,3.10
2017-08-10T16:18:21.624Z,3.10
2017-08-10T16:20:48.553Z,3.13
2017-08-10T16:23:14.780Z,3.57
2017-08-10T16:25:40.919Z,3.10
2017-08-10T16:28:07.094Z,3.10
2017-08-10T16:30:33.270Z,2.77
2017-08-10T16:32:59.431Z,3.60
2017-08-10T16:35:25.612Z,2.57
2017-08-10T16:37:51.762Z,3.30
2017-08-10T16:40:18.721Z,3.00
2017-08-10T16:42:45.628Z,2.80
2017-08-10T16:45:11.811Z,2.83
2017-08-10T16:47:38.044Z,3.27
2017-08-10T16:50:04.212Z,2.90
2017-08-10T16:52:30.442Z,2.80
2017-08-10T16:54:56.600Z,3.33
2017-08-10T16:57:23.522Z,3.17
2017-08-10T16:59:49.711Z,2.90
2017-08-10T17:02:15.844Z,3.37
2017-08-10T17:04:42.129Z,2.60
2017-08-10T17:07:09.079Z,3.03
2017-08-10T17:09:36.022Z,3.70
2017-08-10T17:12:02.626Z,3.60
2017-08-10T17:14:29.479Z,4.37
2017-08-10T17:16:55.707Z,3.83
2017-08-10T17:19:21.942Z,3.70
2017-08-10T17:21:48.147Z,3.60
2017-08-10T17:24:15.034Z,4.80
2017-08-10T17:26:41.987Z,3.37
2017-08-10T17:29:08.914Z,3.37
2017-08-10T17:31:35.068Z,3.60
2017-08-10T17:34:01.617Z,3.60
2017-08-10T17:36:28.190Z,4.17
2017-08-10T17:38:54.383Z,3.80
2017-08-10T17:41:20.594Z,4.73
2017-08-10T17:43:47.546Z,4.30
2017-08-10T17:46:16.101Z,4.10
2017-08-10T17:48:42.393Z,4.57
2017-08-10T17:51:10.742Z,3.30
2017-08-10T17:53:36.970Z,4.00
2017-08-10T17:56:03.175Z,4.40
2017-08-10T17:58:30.142Z,3.40
2017-08-10T18:01:00.083Z,3.43
2017-08-10T18:03:23.298Z,3.33
2017-08-10T18:05:50.212Z,2.90
2017-08-10T18:08:19.502Z,3.27
2017-08-10T18:10:45.739Z,3.07
2017-08-10T18:13:12.795Z,3.07
2017-08-10T18:15:39.796Z,3.57
2017-08-10T18:18:05.994Z,3.60
2017-08-10T18:20:32.955Z,3.73
2017-08-10T18:23:01.038Z,3.50
2017-08-10T18:25:27.273Z,3.57
2017-08-10T18:27:54.239Z,2.90
2017-08-10T18:30:20.943Z,4.03
2017-08-10T18:32:48.260Z,3.50
2017-08-10T18:35:17.426Z,4.00
2017-08-10T18:37:43.912Z,4.57
2017-08-10T18:40:10.112Z,4.60
2017-08-10T18:42:36.294Z,10.87
2017-08-10T18:45:03.566Z,7.43
2017-08-10T18:47:29.825Z,4.97
2017-08-10T18:49:56.009Z,8.10
2017-08-10T18:52:22.159Z,7.30
2017-08-10T18:54:48.350Z,6.10
2017-08-10T18:57:15.331Z,6.10
2017-08-10T18:59:41.583Z,8.70
2017-08-10T19:02:07.791Z,11.10
2017-08-10T19:04:34.158Z,6.87
2017-08-10T19:07:02.059Z,5.00
2017-08-10T19:19:18.458Z,4.73
2017-08-10T19:21:44.810Z,4.87
2017-08-10T19:24:11.185Z,5.43
2017-08-10T19:26:38.322Z,4.87
2017-08-10T19:29:04.889Z,5.43
2017-08-10T19:31:31.635Z,5.67
2017-08-10T19:33:59.714Z,4.47
2017-08-10T19:36:26.457Z,4.23
2017-08-10T19:38:53.842Z,5.20
2017-08-10T19:41:21.072Z,5.22
2017-08-10T19:43:47.709Z,4.33
2017-08-10T19:46:14.343Z,4.93
2017-08-10T19:48:41.199Z,4.10
2017-08-10T19:51:08.643Z,4.43
2017-08-10T19:53:36.001Z,3.67
2017-08-10T19:56:03.882Z,3.43
2017-08-10T19:58:32.524Z,2.80
2017-08-10T20:00:58.834Z,2.70
2017-08-10T20:06:00.139Z,3.20
2017-08-10T20:08:26.440Z,3.30
2017-08-10T20:10:53.479Z,2.50
2017-08-10T20:13:24.580Z,2.87
2017-08-10T20:16:06.064Z,3.50
2017-08-10T20:18:35.828Z,3.97
2017-08-10T20:21:02.194Z,3.83
2017-08-10T20:23:28.393Z,3.53
2017-08-10T20:25:55.329Z,3.43
2017-08-10T20:28:21.924Z,3.30
2017-08-10T20:30:48.161Z,3.17
2017-08-10T20:33:14.533Z,2.70
2017-08-10T20:35:40.840Z,2.97
2017-08-10T20:38:07.033Z,3.03
2017-08-10T20:40:33.248Z,3.20
2017-08-10T20:42:59.685Z,2.93
2017-08-10T20:45:25.883Z,2.60
2017-08-10T20:47:52.692Z,2.87
2017-08-10T20:50:19.377Z,2.43
2017-08-10T20:52:45.555Z,3.40
2017-08-10T20:55:12.718Z,2.20
2017-08-10T20:57:39.446Z,4.37
2017-08-10T21:00:05.773Z,3.07
2017-08-10T21:02:32.023Z,2.67
2017-08-10T21:04:58.283Z,3.97
2017-08-10T21:07:24.475Z,3.50
2017-08-10T21:09:50.642Z,2.80
2017-08-10T21:12:16.828Z,3.47
2017-08-10T21:14:44.783Z,7.10
2017-08-10T21:17:10.974Z,4.97
2017-08-10T21:29:22.946Z,4.57
2017-08-10T21:31:49.114Z,5.73
2017-08-10T21:34:15.288Z,4.50
2017-08-10T21:36:42.329Z,4.30
2017-08-10T21:39:08.487Z,4.40
2017-08-10T21:41:34.765Z,5.03
2017-08-10T21:44:00.956Z,4.00
2017-08-10T21:46:27.170Z,3.50
2017-08-10T21:48:54.380Z,3.30
2017-08-10T21:51:21.472Z,3.30
2017-08-10T21:53:47.663Z,4.37
2017-08-10T21:56:13.842Z,3.80
2017-08-10T21:58:41.155Z,4.30
2017-08-10T22:01:07.334Z,4.00
2017-08-10T22:03:33.552Z,3.50
2017-08-10T22:05:59.818Z,4.03
2017-08-10T22:08:25.991Z,3.40
2017-08-10T22:10:52.210Z,4.27
2017-08-10T22:13:18.398Z,3.87
2017-08-10T22:15:44.579Z,3.30
2017-08-10T22:18:10.742Z,3.90
2017-08-10T22:20:36.973Z,3.63
2017-08-10T22:23:03.155Z,2.70
2017-08-10T22:25:30.097Z,3.83
2017-08-10T22:27:57.043Z,2.43
2017-08-10T22:30:23.956Z,3.73
2017-08-10T22:32:50.095Z,3.30
2017-08-10T22:35:16.291Z,4.73
2017-08-10T22:37:42.439Z,3.50
2017-08-10T22:40:09.501Z,4.37
2017-08-10T22:42:37.198Z,3.47
2017-08-10T22:45:03.402Z,4.00
2017-08-10T22:47:29.580Z,5.27
2017-08-10T22:49:55.818Z,3.97
2017-08-10T22:52:21.996Z,3.70
2017-08-10T22:54:48.884Z,5.30
2017-08-10T22:57:15.102Z,3.70
2017-08-10T22:59:41.273Z,3.60
2017-08-10T23:02:07.474Z,3.80
2017-08-10T23:04:33.654Z,3.03
2017-08-10T23:07:00.579Z,4.50
2017-08-10T23:09:26.738Z,4.37
2017-08-10T23:11:52.944Z,7.57
2017-08-10T23:14:19.130Z,5.80
2017-08-10T23:16:45.362Z,5.20
2017-08-10T23:19:11.558Z,5.20
2017-08-10T23:21:37.770Z,3.60
2017-08-10T23:24:03.915Z,4.60
2017-08-10T23:26:30.103Z,4.27
2017-08-10T23:28:56.295Z,4.03
2017-08-10T23:31:22.463Z,3.67
2017-08-10T23:33:48.694Z,5.13
2017-08-10T23:36:14.923Z,4.00
2017-08-10T23:38:41.129Z,4.50
2017-08-10T23:41:07.299Z,6.37
2017-08-10T23:43:34.260Z,5.90
2017-08-10T23:46:00.424Z,6.77
2017-08-10T23:48:26.649Z,5.20
2017-08-10T23:50:52.830Z,6.30
2017-08-10T23:53:19.824Z,4.30
2017-08-10T23:55:46.000Z,6.87
2017-08-10T23:58:12.949Z,7.50
